Time;durP1;ratioP1;P1;durP2;ratioP2;P2;SDS_P1;SDS_P2;PMS_P1;PMS_P2;Temp;Humidity;BMP_temperature;BMP_pressure;BME280_temperature;BME280_humidity;BME280_pressure;Samples;Min_cycle;Max_cycle;Signal;HPM_P1;HPM_P2
2023/03/09 00:00:22;;;;;;;73.72;30.15;;;;;;;0.54;100.00;98734.16;5010922;28;20036;-73
2023/03/09 00:02:48;;;;;;;69.43;27.50;;;;;;;0.56;100.00;98734.00;5024015;28;20391;-73
2023/03/09 00:05:16;;;;;;;74.70;28.38;;;;;;;0.58;100.00;98730.41;5022847;28;20135;-73
2023/03/09 00:07:42;;;;;;;68.55;28.17;;;;;;;0.59;100.00;98726.09;5025757;28;20534;-74
2023/03/09 00:10:11;;;;;;;72.35;29.75;;;;;;;0.62;100.00;98719.88;5019887;28;20041;-73
2023/03/09 00:12:36;;;;;;;70.95;30.00;;;;;;;0.62;100.00;98713.03;5027274;28;20037;-73
2023/03/09 00:15:02;;;;;;;71.57;28.08;;;;;;;0.60;100.00;98717.47;5029068;28;20091;-74
2023/03/09 00:17:28;;;;;;;77.72;30.40;;;;;;;0.61;100.00;98718.28;5013625;28;20067;-73
2023/03/09 00:20:00;;;;;;;73.00;28.80;;;;;;;0.62;100.00;98719.88;5027866;28;20049;-73
2023/03/09 00:22:27;;;;;;;73.90;30.23;;;;;;;0.62;100.00;98724.97;5019548;28;20407;-73
2023/03/09 00:24:56;;;;;;;79.47;31.10;;;;;;;0.62;100.00;98733.44;5011975;28;20083;-73
2023/03/09 00:27:22;;;;;;;73.32;30.38;;;;;;;0.74;100.00;98731.50;5025807;28;20075;-73
2023/03/09 00:29:47;;;;;;;83.25;31.13;;;;;;;0.69;100.00;98726.03;5008647;28;20057;-73
2023/03/09 00:32:13;;;;;;;72.35;29.25;;;;;;;0.72;100.00;98728.31;5007490;28;20466;-73
2023/03/09 00:34:38;;;;;;;83.43;31.48;;;;;;;0.70;100.00;98732.75;5005794;28;20045;-73
2023/03/09 00:37:04;;;;;;;78.72;30.95;;;;;;;0.73;100.00;98724.78;5006282;28;20041;-73
2023/03/09 00:39:29;;;;;;;79.32;29.83;;;;;;;0.67;100.00;98738.13;5024251;28;20041;-73
2023/03/09 00:41:55;;;;;;;75.57;30.50;;;;;;;0.67;100.00;98748.34;5023788;28;20481;-72
2023/03/09 00:44:21;;;;;;;83.00;29.60;;;;;;;0.72;100.00;98739.31;5025377;28;20414;-73
2023/03/09 00:46:46;;;;;;;69.93;26.80;;;;;;;0.69;100.00;98739.59;5024138;28;20764;-73
2023/03/09 00:49:14;;;;;;;62.75;26.15;;;;;;;0.71;100.00;98745.34;5011027;28;20124;-73
2023/03/09 00:51:41;;;;;;;73.10;28.08;;;;;;;0.68;100.00;98752.47;4992069;28;20128;-73
2023/03/09 00:54:10;;;;;;;69.82;25.52;;;;;;;0.69;100.00;98754.09;4994603;28;20385;-73
2023/03/09 00:56:36;;;;;;;71.10;26.92;;;;;;;0.68;100.00;98758.41;5024401;28;20037;-73
2023/03/09 00:59:01;;;;;;;72.50;27.05;;;;;;;0.72;100.00;98757.16;4999056;28;20037;-72
2023/03/09 01:01:27;;;;;;;71.55;27.02;;;;;;;0.73;100.00;98763.84;5010818;28;20266;-73
2023/03/09 01:03:53;;;;;;;63.13;25.65;;;;;;;0.64;100.00;98754.53;4992519;28;20515;-73
2023/03/09 01:06:19;;;;;;;73.07;26.52;;;;;;;0.60;100.00;98737.88;5008815;28;20169;-73
2023/03/09 01:08:47;;;;;;;68.60;25.88;;;;;;;0.58;100.00;98748.25;5027941;28;20033;-73
2023/03/09 01:11:14;;;;;;;69.78;27.45;;;;;;;0.59;100.00;98751.59;5007839;28;20384;-73
2023/03/09 01:13:40;;;;;;;77.20;26.52;;;;;;;0.57;100.00;98756.03;5006685;28;20044;-74
2023/03/09 01:16:06;;;;;;;60.22;24.50;;;;;;;0.55;100.00;98756.16;5011137;28;20396;-73
2023/03/09 01:18:32;;;;;;;66.68;26.08;;;;;;;0.52;100.00;98764.09;5010602;28;20044;-74
2023/03/09 01:20:59;;;;;;;65.30;26.20;;;;;;;0.53;100.00;98768.25;5010183;28;20037;-73
2023/03/09 01:23:25;;;;;;;69.72;27.02;;;;;;;0.49;100.00;98772.03;5023509;28;20050;-73
2023/03/09 01:25:52;;;;;;;67.55;25.63;;;;;;;0.51;100.00;98779.53;4997301;28;20029;-73
2023/03/09 01:28:18;;;;;;;68.72;26.70;;;;;;;0.54;100.00;98774.97;5025075;28;20049;-73
2023/03/09 01:30:44;;;;;;;72.18;26.63;;;;;;;0.63;100.00;98791.19;5024400;28;20033;-73
2023/03/09 01:33:11;;;;;;;71.00;27.38;;;;;;;0.55;100.00;98802.09;5010928;28;20066;-72
2023/03/09 01:35:40;;;;;;;73.18;27.95;;;;;;;0.56;100.00;98793.47;5025637;28;20029;-73
2023/03/09 01:38:06;;;;;;;67.20;25.77;;;;;;;0.60;100.00;98791.44;5007127;28;20048;-73
2023/03/09 01:40:33;;;;;;;77.93;29.15;;;;;;;0.62;100.00;98788.75;5009815;28;20026;-73
2023/03/09 01:43:26;;;;;;;78.90;29.80;;;;;;;0.61;100.00;98807.56;5027503;28;20083;-73
2023/03/09 01:46:30;;;;;;;80.35;29.27;;;;;;;0.55;100.00;98816.59;5001474;28;20049;-73
2023/03/09 01:49:05;;;;;;;84.72;30.40;;;;;;;0.62;100.00;98829.56;5029600;28;20033;-73
2023/03/09 01:51:41;;;;;;;89.18;30.92;;;;;;;0.57;100.00;98827.47;5008962;28;20574;-73
2023/03/09 01:54:10;;;;;;;96.60;32.15;;;;;;;0.62;100.00;98832.13;5003248;28;20133;-74
2023/03/09 01:56:39;;;;;;;86.85;30.48;;;;;;;0.63;100.00;98838.84;5010754;28;20033;-73
2023/03/09 01:59:07;;;;;;;101.60;33.60;;;;;;;0.66;100.00;98849.59;5025766;28;20037;-73
2023/03/09 02:01:36;;;;;;;89.68;32.05;;;;;;;0.66;100.00;98843.66;5022845;28;20487;-73
2023/03/09 02:04:08;;;;;;;88.78;31.55;;;;;;;0.62;100.00;98855.88;5024926;28;20041;-72
2023/03/09 02:06:34;;;;;;;88.63;31.83;;;;;;;0.61;100.00;98863.69;5017059;28;20392;-73
2023/03/09 02:09:21;;;;;;;95.47;33.85;;;;;;;0.65;100.00;98876.03;5010076;28;20029;-74
2023/03/09 02:11:47;;;;;;;86.18;32.55;;;;;;;0.66;100.00;98874.28;5005475;28;20037;-74
2023/03/09 02:14:14;;;;;;;86.20;30.45;;;;;;;0.58;100.00;98865.59;5021383;28;20040;-73
2023/03/09 02:16:39;;;;;;;90.35;31.95;;;;;;;0.57;100.00;98858.88;5024982;28;20036;-73
2023/03/09 02:19:08;;;;;;;99.47;34.30;;;;;;;0.65;100.00;98873.47;5010063;28;20033;-74
2023/03/09 02:21:42;;;;;;;105.70;34.50;;;;;;;0.67;100.00;98884.34;5025220;28;20459;-73
2023/03/09 02:24:34;;;;;;;104.45;35.17;;;;;;;0.80;100.00;98888.34;5007164;28;20045;-73
2023/03/09 02:27:15;;;;;;;112.18;36.85;;;;;;;0.73;100.00;98896.53;5012342;28;20056;-73
2023/03/09 02:29:40;;;;;;;107.78;36.05;;;;;;;0.67;100.00;98903.94;5013381;28;20091;-73
2023/03/09 02:32:06;;;;;;;117.65;39.55;;;;;;;0.67;100.00;98914.94;4994744;28;20467;-73
2023/03/09 02:34:32;;;;;;;116.90;38.30;;;;;;;0.60;100.00;98915.66;5008452;28;20037;-73
2023/03/09 02:36:57;;;;;;;119.93;37.92;;;;;;;0.64;100.00;98937.38;5023603;28;20091;-73
2023/03/09 02:39:44;;;;;;;114.47;38.28;;;;;;;0.76;100.00;98920.97;5011152;28;20047;-73
2023/03/09 02:42:10;;;;;;;108.50;37.28;;;;;;;0.65;100.00;98933.91;5021400;28;20040;-73
2023/03/09 02:44:36;;;;;;;105.90;36.55;;;;;;;0.59;100.00;98925.06;5012152;28;20037;-72
2023/03/09 02:47:13;;;;;;;103.40;35.40;;;;;;;0.60;100.00;98902.88;5020564;28;20029;-74
2023/03/09 02:49:38;;;;;;;103.93;34.47;;;;;;;0.53;100.00;98913.66;5023442;28;20431;-73
2023/03/09 02:52:04;;;;;;;101.90;34.88;;;;;;;0.53;100.00;98928.97;5008186;28;20040;-73
2023/03/09 02:54:30;;;;;;;104.80;34.30;;;;;;;0.56;100.00;98932.97;5017287;28;20033;-73
2023/03/09 02:56:57;;;;;;;103.93;34.15;;;;;;;0.61;100.00;98935.91;5008041;28;20052;-73
2023/03/09 02:59:23;;;;;;;104.45;34.63;;;;;;;0.62;100.00;98941.81;4993570;28;20041;-74
2023/03/09 03:01:48;;;;;;;96.32;33.17;;;;;;;0.61;100.00;98935.91;5007715;28;20037;-73
2023/03/09 03:04:14;;;;;;;95.65;34.13;;;;;;;0.61;100.00;98940.22;5021376;28;20059;-73
2023/03/09 03:06:39;;;;;;;91.03;33.58;;;;;;;0.68;100.00;98951.47;5004644;28;20087;-73
2023/03/09 03:09:06;;;;;;;92.45;33.15;;;;;;;0.66;100.00;98946.53;5001321;28;20523;-73
2023/03/09 03:11:31;;;;;;;94.93;33.45;;;;;;;0.64;100.00;98950.13;5016049;28;20511;-73
2023/03/09 03:14:00;;;;;;;95.55;32.80;;;;;;;0.58;100.00;98947.22;5002292;28;20474;-73
2023/03/09 03:16:26;;;;;;;95.78;33.83;;;;;;;0.61;100.00;98948.69;5004738;28;20484;-73
2023/03/09 03:18:52;;;;;;;87.72;31.60;;;;;;;0.57;100.00;98945.59;5012062;28;20092;-73
2023/03/09 03:21:18;;;;;;;93.30;33.08;;;;;;;0.58;100.00;98947.22;4992406;28;20033;-73
2023/03/09 03:23:44;;;;;;;89.85;32.72;;;;;;;0.54;100.00;98966.25;5018263;28;20511;-73
2023/03/09 03:26:11;;;;;;;95.72;32.90;;;;;;;0.51;100.00;98964.00;5029600;28;20029;-73
2023/03/09 03:28:41;;;;;;;94.95;32.47;;;;;;;0.64;100.00;98983.31;5022532;28;20033;-73
2023/03/09 03:31:14;;;;;;;95.25;32.67;;;;;;;0.65;100.00;98987.47;5012773;28;20030;-73
2023/03/09 03:33:40;;;;;;;95.35;33.83;;;;;;;0.58;100.00;98970.19;5037446;28;20032;-73
2023/03/09 03:36:06;;;;;;;102.05;34.50;;;;;;;0.52;100.00;98975.81;4986858;28;20032;-72
2023/03/09 03:38:32;;;;;;;94.55;32.53;;;;;;;0.46;100.00;98981.44;5005631;28;20033;-73
2023/03/09 03:40:58;;;;;;;99.35;32.63;;;;;;;0.50;100.00;98992.19;4991652;28;20037;-73
2023/03/09 03:43:25;;;;;;;96.25;32.65;;;;;;;0.73;100.00;98997.78;5020455;28;20045;-72
2023/03/09 03:45:53;;;;;;;100.10;33.53;;;;;;;0.64;100.00;99002.00;5002438;28;20025;-73
2023/03/09 03:48:21;;;;;;;93.47;31.92;;;;;;;0.61;100.00;99006.56;5006886;28;20514;-72
2023/03/09 03:50:47;;;;;;;93.78;31.58;;;;;;;0.54;100.00;99007.06;5011635;28;20037;-73
2023/03/09 03:53:12;;;;;;;98.22;33.33;;;;;;;0.52;100.00;99016.59;5019130;28;20050;-73
2023/03/09 03:55:38;;;;;;;104.03;33.42;;;;;;;0.52;100.00;99013.25;5022162;28;20045;-73
2023/03/09 03:58:04;;;;;;;95.50;31.77;;;;;;;0.48;100.00;99002.53;5005008;28;20046;-73
2023/03/09 04:00:30;;;;;;;94.20;31.48;;;;;;;0.46;100.00;99006.16;5019764;28;20033;-73
2023/03/09 04:02:59;;;;;;;98.38;31.95;;;;;;;0.49;100.00;99010.97;4992075;28;20080;-73
2023/03/09 04:05:36;;;;;;;106.68;33.92;;;;;;;0.45;100.00;99007.09;5006389;28;20044;-73
2023/03/09 04:08:03;;;;;;;96.53;32.15;;;;;;;0.45;100.00;99023.19;4990935;28;20029;-73
2023/03/09 04:10:28;;;;;;;87.55;30.92;;;;;;;0.45;100.00;99030.84;5003683;28;20064;-73
2023/03/09 04:12:54;;;;;;;97.45;31.92;;;;;;;0.45;100.00;99038.50;5010992;28;20078;-73
2023/03/09 04:15:21;;;;;;;93.80;32.92;;;;;;;0.49;100.00;99046.69;5021482;28;20041;-73
2023/03/09 04:17:48;;;;;;;95.45;33.47;;;;;;;0.51;100.00;99055.00;5003333;28;20049;-73
2023/03/09 04:20:15;;;;;;;91.22;31.10;;;;;;;0.49;100.00;99051.78;5023574;28;20029;-73
2023/03/09 04:22:42;;;;;;;103.03;34.08;;;;;;;0.50;100.00;99059.31;5011495;28;20151;-74
2023/03/09 04:25:09;;;;;;;99.70;32.47;;;;;;;0.50;100.00;99063.59;5018303;28;20029;-73
2023/03/09 04:27:35;;;;;;;90.75;32.97;;;;;;;0.58;100.00;99071.38;4991511;28;20040;-73
2023/03/09 04:30:05;;;;;;;93.07;33.35;;;;;;;0.54;100.00;99068.28;5006424;28;20503;-73
2023/03/09 04:32:33;;;;;;;93.80;32.05;;;;;;;0.52;100.00;99072.72;5022006;28;20034;-73
2023/03/09 04:35:06;;;;;;;105.38;33.55;;;;;;;0.50;100.00;99079.72;5007358;28;20063;-73
2023/03/09 04:37:33;;;;;;;104.55;33.13;;;;;;;0.51;100.00;99083.06;5017749;28;20438;-73
2023/03/09 04:39:59;;;;;;;100.28;34.38;;;;;;;0.50;100.00;99081.47;5024825;28;20059;-73
2023/03/09 04:42:24;;;;;;;98.78;31.83;;;;;;;0.50;100.00;99082.25;5025936;28;20385;-73
2023/03/09 04:44:50;;;;;;;94.68;30.70;;;;;;;0.52;100.00;99077.81;5029133;28;20083;-72
2023/03/09 04:47:16;;;;;;;92.63;31.27;;;;;;;0.50;100.00;99078.91;5010031;28;20442;-73
2023/03/09 04:49:42;;;;;;;92.82;32.00;;;;;;;0.53;100.00;99087.09;5006480;28;20038;-73
2023/03/09 04:52:08;;;;;;;97.80;34.22;;;;;;;0.54;100.00;99087.91;5042874;28;20061;-73
2023/03/09 04:54:35;;;;;;;104.45;34.00;;;;;;;0.55;100.00;99090.31;5041956;23;20057;-80
2023/03/09 04:57:02;;;;;;;89.65;30.27;;;;;;;0.52;100.00;99098.22;5007135;28;20046;-80
2023/03/09 04:59:27;;;;;;;101.10;31.55;;;;;;;0.50;100.00;99110.31;5008877;28;20060;-80
2023/03/09 05:01:53;;;;;;;97.43;31.90;;;;;;;0.53;100.00;99097.31;5044011;28;20057;-79
2023/03/09 05:04:23;;;;;;;96.22;34.15;;;;;;;0.52;100.00;99097.44;5017365;28;20247;-80
2023/03/09 05:06:54;;;;;;;96.45;31.65;;;;;;;0.50;100.00;99100.13;5031605;28;20029;-80
2023/03/09 05:09:20;;;;;;;101.22;31.65;;;;;;;0.50;100.00;99122.28;5031041;28;20041;-81
2023/03/09 05:11:51;;;;;;;98.75;33.80;;;;;;;0.57;100.00;99126.72;5032861;28;20036;-81
2023/03/09 05:14:19;;;;;;;100.35;32.13;;;;;;;0.53;100.00;99125.38;5038545;28;20033;-81
2023/03/09 05:16:48;;;;;;;90.47;30.88;;;;;;;0.59;100.00;99126.59;5027387;28;20037;-81
2023/03/09 05:19:14;;;;;;;96.60;30.52;;;;;;;0.57;100.00;99136.91;5042075;28;20037;-81
2023/03/09 05:21:40;;;;;;;87.10;29.98;;;;;;;0.54;100.00;99134.63;5024506;28;20037;-81
2023/03/09 05:24:10;;;;;;;92.55;30.10;;;;;;;0.57;100.00;99136.91;5037983;28;20056;-80
2023/03/09 05:26:37;;;;;;;88.72;29.77;;;;;;;0.58;100.00;99143.63;5025586;28;20036;-80
2023/03/09 05:29:04;;;;;;;97.95;32.70;;;;;;;0.56;100.00;99134.50;5041562;28;20029;-80
2023/03/09 05:31:33;;;;;;;92.47;30.25;;;;;;;0.50;100.00;99130.72;5024878;28;20026;-80
2023/03/09 05:33:59;;;;;;;96.82;30.20;;;;;;;0.50;100.00;99133.28;5034755;28;20042;-79
2023/03/09 05:36:25;;;;;;;108.38;34.72;;;;;;;0.51;100.00;99144.28;5039094;28;20037;-80
2023/03/09 05:38:53;;;;;;;112.97;35.50;;;;;;;0.56;100.00;99144.69;5034261;28;20029;-79
2023/03/09 05:41:20;;;;;;;95.93;32.33;;;;;;;0.53;100.00;99155.19;5032895;28;20059;-79
2023/03/09 05:43:49;;;;;;;104.35;32.17;;;;;;;0.56;100.00;99163.34;5034267;28;20071;-80
2023/03/09 05:46:17;;;;;;;100.93;33.05;;;;;;;0.56;100.00;99162.56;5034269;28;20096;-80
2023/03/09 05:48:45;;;;;;;101.63;33.22;;;;;;;0.64;100.00;99170.38;5032043;28;20025;-80
2023/03/09 05:51:11;;;;;;;104.97;34.13;;;;;;;0.55;100.00;99173.72;5036819;28;20088;-80
2023/03/09 05:53:37;;;;;;;105.60;33.58;;;;;;;0.62;100.00;99184.97;5021307;28;20051;-79
2023/03/09 05:56:05;;;;;;;112.15;33.67;;;;;;;0.55;100.00;99189.81;5037507;28;20044;-80
2023/03/09 05:58:32;;;;;;;108.20;32.55;;;;;;;0.52;100.00;99190.06;5035536;28;20037;-80
2023/03/09 06:00:58;;;;;;;111.03;32.53;;;;;;;0.52;100.00;99189.25;5031543;28;20047;-81
2023/03/09 06:03:25;;;;;;;115.38;36.67;;;;;;;0.50;100.00;99198.78;5036777;28;20182;-80
2023/03/09 06:06:00;;;;;;;107.10;32.17;;;;;;;0.50;100.00;99199.59;5023414;28;20056;-80
2023/03/09 06:08:27;;;;;;;117.72;34.45;;;;;;;0.49;100.00;99205.66;5017687;28;20033;-80
2023/03/09 06:10:57;;;;;;;106.32;31.98;;;;;;;0.61;100.00;99206.34;5039034;28;20037;-79
2023/03/09 06:13:22;;;;;;;107.05;32.55;;;;;;;0.49;100.00;99202.25;5034864;28;20033;-81
2023/03/09 06:15:48;;;;;;;110.45;33.08;;;;;;;0.46;100.00;99217.84;5022687;28;20407;-79
2023/03/09 06:18:14;;;;;;;109.65;33.35;;;;;;;0.45;100.00;99208.56;5032132;28;20064;-80
2023/03/09 06:20:40;;;;;;;105.32;31.48;;;;;;;0.49;100.00;99212.47;5022320;28;20438;-79
2023/03/09 06:23:06;;;;;;;103.35;31.33;;;;;;;0.46;100.00;99217.84;5036644;28;20873;-79
2023/03/09 06:25:32;;;;;;;97.68;30.98;;;;;;;0.45;100.00;99214.47;5036274;28;20029;-80
2023/03/09 06:27:58;;;;;;;102.68;31.63;;;;;;;0.46;100.00;99202.53;5020431;28;20625;-79
2023/03/09 06:30:26;;;;;;;106.25;31.08;;;;;;;0.44;100.00;99197.56;5034646;28;20116;-79
2023/03/09 06:32:53;;;;;;;102.72;30.98;;;;;;;0.44;100.00;99206.97;5033191;28;20491;-80
2023/03/09 06:35:18;;;;;;;114.63;32.47;;;;;;;0.45;100.00;99219.56;5034276;28;20037;-80
2023/03/09 06:37:46;;;;;;;101.70;30.67;;;;;;;0.45;100.00;99213.66;5036989;28;20028;-79
2023/03/09 06:40:12;;;;;;;106.43;31.55;;;;;;;0.45;100.00;99218.78;5035776;28;20025;-80
2023/03/09 06:42:39;;;;;;;102.22;32.42;;;;;;;0.46;100.00;99215.31;5033989;28;20033;-79
2023/03/09 06:45:06;;;;;;;107.93;31.23;;;;;;;0.56;100.00;99211.81;5036394;28;20095;-79
2023/03/09 06:47:32;;;;;;;106.28;31.30;;;;;;;0.53;100.00;99226.59;5033837;28;20033;-79
2023/03/09 06:50:03;;;;;;;100.60;31.23;;;;;;;0.54;100.00;99233.31;5033141;28;20037;-80
2023/03/09 06:52:30;;;;;;;101.28;29.05;;;;;;;0.56;100.00;99236.53;5022508;28;20025;-79
2023/03/09 06:54:57;;;;;;;101.20;32.10;;;;;;;0.58;100.00;99238.03;5031980;28;20036;-80
2023/03/09 06:57:23;;;;;;;107.00;32.72;;;;;;;0.64;100.00;99241.81;5034327;28;20029;-79
2023/03/09 06:59:49;;;;;;;95.85;30.02;;;;;;;0.68;100.00;99239.78;5033050;28;20037;-80
2023/03/09 07:02:17;;;;;;;95.70;30.25;;;;;;;0.71;100.00;99249.72;5020826;28;20041;-80
2023/03/09 07:04:42;;;;;;;104.18;31.38;;;;;;;0.80;100.00;99245.59;5032762;28;20044;-79
2023/03/09 07:07:08;;;;;;;103.50;30.85;;;;;;;0.81;100.00;99247.19;5033924;28;20037;-79
2023/03/09 07:09:34;;;;;;;109.15;31.30;;;;;;;0.80;100.00;99248.97;5031691;28;20040;-79
2023/03/09 07:12:00;;;;;;;95.10;29.58;;;;;;;0.85;100.00;99248.53;5033846;28;20509;-78
2023/03/09 07:14:26;;;;;;;84.95;26.70;;;;;;;0.85;100.00;99251.94;5033272;28;20140;-79
2023/03/09 07:16:54;;;;;;;92.85;29.38;;;;;;;0.84;100.00;99254.59;5020280;28;20037;-78
2023/03/09 07:19:20;;;;;;;87.45;27.85;;;;;;;0.85;100.00;99266.41;5031655;28;20123;-78
2023/03/09 07:21:45;;;;;;;93.10;30.58;;;;;;;0.86;100.00;99270.59;5018847;28;20033;-78
2023/03/09 07:24:11;;;;;;;94.22;29.35;;;;;;;0.85;100.00;99279.19;5017894;28;20161;-78
2023/03/09 07:26:36;;;;;;;91.18;28.13;;;;;;;0.93;100.00;99292.91;5017247;28;20041;-78
2023/03/09 07:29:02;;;;;;;98.63;29.40;;;;;;;0.92;100.00;99298.13;5031881;28;20052;-79
2023/03/09 07:31:29;;;;;;;98.72;30.45;;;;;;;0.92;100.00;99295.59;5031756;28;20033;-79
2023/03/09 07:33:58;;;;;;;92.40;29.55;;;;;;;0.92;100.00;99304.06;5015762;28;20040;-78
2023/03/09 07:36:24;;;;;;;89.32;27.83;;;;;;;0.93;100.00;99309.97;5028285;28;20051;-78
2023/03/09 07:38:50;;;;;;;92.35;30.20;;;;;;;0.94;100.00;99307.31;5047514;28;20040;-78
2023/03/09 07:41:17;;;;;;;98.75;31.40;;;;;;;0.96;100.00;99307.97;5029135;28;20032;-79
2023/03/09 07:43:45;;;;;;;101.72;30.55;;;;;;;1.04;100.00;99322.63;5029953;28;20123;-78
2023/03/09 07:46:23;;;;;;;105.70;32.00;;;;;;;1.14;100.00;99328.56;5047436;28;20025;-79
2023/03/09 07:48:49;;;;;;;87.97;28.40;;;;;;;1.17;100.00;99332.63;5028905;28;20039;-79
2023/03/09 07:51:15;;;;;;;98.22;30.73;;;;;;;1.16;100.00;99343.75;5029095;28;20029;-77
2023/03/09 07:53:41;;;;;;;96.80;29.52;;;;;;;1.22;100.00;99355.19;5023991;28;20056;-78
2023/03/09 07:56:08;;;;;;;96.82;30.15;;;;;;;1.17;100.00;99353.84;5027179;28;20073;-78
2023/03/09 07:58:35;;;;;;;99.43;28.70;;;;;;;1.19;100.00;99363.09;5030263;28;20056;-78
2023/03/09 08:01:03;;;;;;;115.60;32.22;;;;;;;1.28;100.00;99367.44;5014538;28;20040;-77
2023/03/09 08:03:29;;;;;;;110.63;32.78;;;;;;;1.20;100.00;99377.50;5028896;28;20037;-78
2023/03/09 08:05:55;;;;;;;100.70;30.92;;;;;;;1.17;100.00;99387.03;5015259;28;20033;-79
2023/03/09 08:08:22;;;;;;;100.13;29.77;;;;;;;1.19;100.00;99384.38;5025180;28;20041;-78
2023/03/09 08:10:48;;;;;;;105.78;33.05;;;;;;;1.22;100.00;99384.09;5035659;28;20032;-78
2023/03/09 08:13:14;;;;;;;110.25;34.25;;;;;;;1.24;100.00;99387.31;5013853;28;20037;-78
2023/03/09 08:15:40;;;;;;;109.05;31.85;;;;;;;1.25;100.00;99390.69;5037324;28;20312;-78
2023/03/09 08:18:06;;;;;;;100.45;31.48;;;;;;;1.31;100.00;99385.88;5031935;28;20160;-78
2023/03/09 08:20:32;;;;;;;105.90;33.97;;;;;;;1.29;100.00;99397.97;5037031;28;20044;-76
2023/03/09 08:22:57;;;;;;;106.93;32.30;;;;;;;1.35;100.00;99399.19;5033419;28;20036;-77
2023/03/09 08:25:23;;;;;;;109.68;31.63;;;;;;;1.39;100.00;99402.28;5032439;28;20037;-78
2023/03/09 08:27:49;;;;;;;101.32;31.52;;;;;;;1.44;100.00;99403.50;5022361;28;20117;-77
2023/03/09 08:30:18;;;;;;;108.68;30.13;;;;;;;1.47;100.00;99410.91;5016863;28;20044;-78
2023/03/09 08:32:47;;;;;;;109.63;32.53;;;;;;;1.53;100.00;99409.59;5010816;28;20040;-78
2023/03/09 08:35:14;;;;;;;98.82;30.58;;;;;;;1.59;100.00;99419.28;5013176;28;20036;-77
2023/03/09 08:37:40;;;;;;;88.68;29.40;;;;;;;1.60;100.00;99420.91;5031727;28;20032;-77
2023/03/09 08:40:06;;;;;;;87.72;29.52;;;;;;;1.60;100.00;99423.47;5014268;28;20391;-78
2023/03/09 08:42:35;;;;;;;95.63;29.80;;;;;;;1.62;100.00;99419.03;5033319;28;20063;-77
2023/03/09 08:45:04;;;;;;;102.72;29.65;;;;;;;1.64;100.00;99427.38;5017966;28;20076;-77
2023/03/09 08:47:56;;;;;;;100.55;32.35;;;;;;;1.69;100.00;99434.63;5031591;28;20082;-78
2023/03/09 08:50:41;;;;;;;98.03;29.75;;;;;;;1.68;100.00;99438.94;5042345;28;20033;-78
2023/03/09 09:31:43;;;;;;;106.75;34.42;;;;;;;1.91;100.00;99489.84;4944696;28;20429;-77
2023/03/09 09:57:43;;;;;;;109.82;34.40;;;;;;;2.39;100.00;99518.94;4954639;28;20105;-77
2023/03/09 10:38:24;;;;;;;107.25;38.30;;;;;;;3.10;100.00;99521.16;5030934;28;20132;-77
2023/03/09 10:45:41;;;;;;;100.97;34.92;;;;;;;3.27;100.00;99515.31;5045213;28;20048;-78
2023/03/09 10:52:00;;;;;;;90.13;34.45;;;;;;;3.39;100.00;99517.69;5039263;28;20063;-78
2023/03/09 10:54:40;;;;;;;87.20;31.50;;;;;;;3.41;100.00;99514.06;5027607;28;20029;-78
2023/03/09 10:57:28;;;;;;;90.40;32.60;;;;;;;3.47;100.00;99505.00;5030609;28;20029;-78
2023/03/09 12:30:41;;;;;;;76.68;30.67;;;;;;;4.16;100.00;99497.72;5796818;23;20057;-82
2023/03/09 12:33:10;;;;;;;79.07;30.02;;;;;;;4.32;100.00;99494.50;4995033;28;20073;-82
2023/03/09 12:35:38;;;;;;;77.15;29.23;;;;;;;4.27;100.00;99490.59;4994866;28;20037;-83
2023/03/09 12:38:20;;;;;;;75.15;28.00;;;;;;;4.21;100.00;99488.63;5000530;28;20037;-83
2023/03/09 12:40:47;;;;;;;79.43;29.38;;;;;;;4.36;100.00;99485.56;4998689;28;20079;-83
2023/03/09 12:43:15;;;;;;;78.82;27.98;;;;;;;4.37;100.00;99475.16;4991882;28;20046;-83
2023/03/09 12:45:45;;;;;;;70.05;27.38;;;;;;;4.28;100.00;99471.69;5009783;28;20513;-83
2023/03/09 12:48:11;;;;;;;80.07;29.65;;;;;;;4.33;100.00;99471.25;5007515;28;20069;-83
2023/03/09 12:50:53;;;;;;;74.18;28.95;;;;;;;4.24;100.00;99477.28;4996569;28;20121;-83
2023/03/09 12:53:21;;;;;;;65.72;26.33;;;;;;;4.15;100.00;99478.97;4981778;28;20049;-81
2023/03/09 12:55:53;;;;;;;69.78;27.80;;;;;;;4.09;100.00;99469.28;5020558;28;20176;-83
2023/03/09 12:58:21;;;;;;;71.78;28.25;;;;;;;4.15;100.00;99468.69;5004047;28;20095;-83
2023/03/09 13:01:26;;;;;;;80.00;28.95;;;;;;;4.21;100.00;99475.81;4980784;28;20592;-83
2023/03/09 13:04:01;;;;;;;74.60;28.27;;;;;;;4.18;100.00;99477.84;4975299;28;20070;-83
2023/03/09 13:06:40;;;;;;;73.50;27.38;;;;;;;4.13;100.00;99477.50;4996304;28;20448;-83
2023/03/09 13:09:12;;;;;;;69.32;26.40;;;;;;;4.15;100.00;99470.47;4998460;28;20063;-83
2023/03/09 13:11:59;;;;;;;66.72;24.92;;;;;;;4.14;100.00;99473.97;4991873;28;20041;-83
2023/03/09 13:14:24;;;;;;;66.45;25.33;;;;;;;4.17;100.00;99466.78;4965566;28;20042;-84
2023/03/09 13:17:06;;;;;;;65.80;25.67;;;;;;;4.10;100.00;99466.56;4995550;28;20164;-83
2023/03/09 13:19:49;;;;;;;62.20;24.35;;;;;;;4.20;100.00;99451.13;4994609;28;20972;-83
2023/03/09 13:22:19;;;;;;;59.45;24.55;;;;;;;4.17;100.00;99441.13;4982061;28;20044;-84
2023/03/09 13:24:47;;;;;;;67.15;24.35;;;;;;;4.27;100.00;99441.84;5015229;28;20050;-83
2023/03/09 13:27:28;;;;;;;61.95;25.08;;;;;;;4.33;100.00;99440.44;5001901;28;20033;-84
2023/03/09 13:29:57;;;;;;;56.63;23.75;;;;;;;4.24;100.00;99438.78;5016806;28;20041;-83
2023/03/09 13:32:33;;;;;;;61.60;23.52;;;;;;;4.35;100.00;99441.13;4985684;28;20238;-83
2023/03/09 13:35:02;;;;;;;60.67;23.90;;;;;;;4.34;100.00;99446.41;4992762;28;20041;-83
2023/03/09 13:37:32;;;;;;;61.28;23.23;;;;;;;4.19;100.00;99441.78;4994312;28;20511;-83
2023/03/09 13:40:24;;;;;;;59.55;22.75;;;;;;;4.29;100.00;99445.09;5008960;28;20036;-83
2023/03/09 13:42:50;;;;;;;53.72;23.38;;;;;;;4.29;100.00;99427.13;4992096;28;20046;-83
2023/03/09 13:45:21;;;;;;;61.78;24.27;;;;;;;4.41;100.00;99427.69;4998975;28;20041;-82
2023/03/09 13:47:52;;;;;;;61.95;23.75;;;;;;;4.37;100.00;99443.53;4995704;28;20038;-82
2023/03/09 13:50:19;;;;;;;67.22;24.23;;;;;;;4.25;100.00;99441.19;4981507;28;20033;-83
2023/03/09 13:53:15;;;;;;;56.72;22.70;;;;;;;4.32;100.00;99449.13;4997211;28;20060;-83
2023/03/09 13:55:41;;;;;;;57.55;23.85;;;;;;;4.22;100.00;99449.19;5009355;28;20071;-82
2023/03/09 13:58:15;;;;;;;55.63;23.08;;;;;;;4.18;100.00;99465.03;4997882;28;20046;-83
2023/03/09 14:00:58;;;;;;;61.95;23.40;;;;;;;4.29;100.00;99454.53;4977242;28;20042;-84
2023/03/09 14:03:25;;;;;;;;;;;;;;;4.35;100.00;99453.13;4993366;28;20046;-84
2023/03/09 14:06:28;;;;;;;57.15;22.40;;;;;;;4.24;100.00;99465.25;4997226;28;20536;-83
2023/03/09 14:08:56;;;;;;;62.13;24.48;;;;;;;4.50;100.00;99441.38;4991573;28;20042;-83
2023/03/09 14:11:25;;;;;;;61.20;24.08;;;;;;;4.32;100.00;99453.44;4997198;28;20046;-83
2023/03/09 14:14:04;;;;;;;63.80;24.35;;;;;;;4.53;100.00;99432.59;4974620;28;20041;-83
2023/03/09 14:16:31;;;;;;;57.60;22.42;;;;;;;4.40;100.00;99425.28;4994195;28;20447;-83
2023/03/09 14:18:58;;;;;;;59.25;23.27;;;;;;;4.37;100.00;99405.84;4993472;28;20088;-83
2023/03/09 14:21:26;;;;;;;56.42;22.77;;;;;;;4.35;100.00;99418.03;4996828;28;20061;-84
2023/03/09 14:23:54;;;;;;;51.47;20.42;;;;;;;4.32;100.00;99445.75;4994673;28;20046;-83
2023/03/09 14:26:30;;;;;;;53.05;20.58;;;;;;;4.38;100.00;99420.28;4978598;28;20033;-83
2023/03/09 14:29:00;;;;;;;45.22;19.75;;;;;;;4.31;100.00;99436.44;4971173;28;20228;-84
2023/03/09 14:31:28;;;;;;;48.90;20.65;;;;;;;4.29;100.00;99446.84;4999053;28;20044;-83
2023/03/09 14:33:59;;;;;;;49.78;20.02;;;;;;;4.27;100.00;99454.69;4974520;28;20103;-82
2023/03/09 14:36:25;;;;;;;55.47;21.90;;;;;;;4.63;100.00;99428.16;4991348;28;20030;-83
2023/03/09 14:38:54;;;;;;;78.85;33.08;;;;;;;4.53;100.00;99419.75;4978255;28;20038;-83
2023/03/09 14:41:22;;;;;;;57.42;24.08;;;;;;;4.52;100.00;99426.66;4991253;28;20037;-83